Time;durP1;ratioP1;P1;durP2;ratioP2;P2;SDS_P1;SDS_P2;PMS_P1;PMS_P2;Temp;Humidity;BMP_temperature;BMP_pressure;BME280_temperature;BME280_humidity;BME280_pressure;Samples;Min_cycle;Max_cycle;Signal;HPM_P1;HPM_P2
2023/01/03 00:00:41;;;;;;;9.85;6.43;;;5.40;99.90;;;;;;5052609;28;20083;-69
2023/01/03 00:03:07;;;;;;;12.23;7.10;;;5.50;99.90;;;;;;5052653;28;20025;-70
2023/01/03 00:05:35;;;;;;;7.80;6.15;;;5.60;99.90;;;;;;5052861;28;20021;-69
2023/01/03 00:08:01;;;;;;;8.35;6.25;;;5.70;99.90;;;;;;5052019;28;20073;-70
2023/01/03 00:10:28;;;;;;;15.90;6.40;;;5.80;99.90;;;;;;5053225;28;20059;-69
2023/01/03 00:12:55;;;;;;;12.80;6.35;;;5.90;99.90;;;;;;5052396;28;20108;-70
2023/01/03 00:15:21;;;;;;;14.27;6.35;;;6.00;99.90;;;;;;5053112;28;20074;-69
2023/01/03 00:17:46;;;;;;;11.60;6.30;;;6.10;99.90;;;;;;5052590;28;20044;-69
2023/01/03 00:20:12;;;;;;;15.18;6.45;;;6.10;99.90;;;;;;5050386;28;20021;-69
2023/01/03 00:22:38;;;;;;;8.50;6.28;;;6.10;99.90;;;;;;5051895;28;20542;-69
2023/01/03 00:25:03;;;;;;;8.60;6.03;;;6.10;99.90;;;;;;5052631;28;20031;-69
2023/01/03 00:27:29;;;;;;;9.25;5.78;;;6.10;99.90;;;;;;5048078;28;20497;-70
2023/01/03 00:29:55;;;;;;;8.52;5.40;;;6.00;99.90;;;;;;5041803;28;20108;-70
2023/01/03 00:32:20;;;;;;;9.50;5.72;;;5.90;99.90;;;;;;5052028;28;20029;-69
2023/01/03 00:34:46;;;;;;;8.50;6.95;;;5.80;99.90;;;;;;5051924;28;20031;-70
2023/01/03 00:37:13;;;;;;;8.98;6.28;;;5.70;99.90;;;;;;5052081;28;20037;-69
2023/01/03 00:39:39;;;;;;;9.90;6.03;;;5.60;99.90;;;;;;5052475;28;20104;-69
2023/01/03 00:42:05;;;;;;;11.30;7.22;;;5.50;99.90;;;;;;5050482;28;20033;-69
2023/01/03 00:44:31;;;;;;;8.63;6.47;;;5.40;99.90;;;;;;5051562;28;20112;-69
2023/01/03 00:46:57;;;;;;;8.82;6.35;;;5.30;99.90;;;;;;5051613;28;20055;-69
2023/01/03 00:49:23;;;;;;;9.60;7.00;;;5.30;99.90;;;;;;5050841;28;20025;-70
2023/01/03 00:51:49;;;;;;;12.05;7.85;;;5.30;99.90;;;;;;5051911;28;20540;-69
2023/01/03 00:54:15;;;;;;;12.70;8.57;;;5.20;99.90;;;;;;5052052;28;20375;-69
2023/01/03 00:56:45;;;;;;;14.65;9.15;;;5.20;99.90;;;;;;5051819;28;20041;-69
2023/01/03 00:59:13;;;;;;;15.60;10.25;;;5.20;99.90;;;;;;5055769;28;20430;-69
2023/01/03 01:01:42;;;;;;;13.63;10.63;;;5.20;99.90;;;;;;5056013;28;20392;-69
2023/01/03 01:04:12;;;;;;;22.83;11.97;;;5.20;99.90;;;;;;5055680;28;20033;-69
2023/01/03 01:06:46;;;;;;;16.23;11.82;;;5.20;99.90;;;;;;5056318;28;20275;-69
2023/01/03 01:09:15;;;;;;;21.02;11.85;;;5.30;99.90;;;;;;5055191;28;20021;-69
2023/01/03 01:11:41;;;;;;;17.83;12.93;;;5.30;99.90;;;;;;5055683;28;20031;-69
2023/01/03 01:14:18;;;;;;;21.88;14.57;;;5.30;99.90;;;;;;5056307;28;20111;-70
2023/01/03 01:16:55;;;;;;;20.63;13.75;;;5.30;99.90;;;;;;5055332;28;20036;-70
2023/01/03 01:19:24;;;;;;;19.17;13.52;;;5.40;99.90;;;;;;5056177;28;20032;-70
2023/01/03 01:21:50;;;;;;;17.73;13.38;;;5.40;99.90;;;;;;5055266;28;20021;-70
2023/01/03 01:24:16;;;;;;;19.85;13.77;;;5.40;99.90;;;;;;5055296;28;20082;-70
2023/01/03 01:26:42;;;;;;;22.80;15.77;;;5.40;99.90;;;;;;5055360;28;20025;-70
2023/01/03 01:29:10;;;;;;;33.75;16.27;;;5.30;99.90;;;;;;5041372;28;20393;-70
2023/01/03 01:31:36;;;;;;;26.75;17.73;;;5.30;99.90;;;;;;5055623;28;20036;-70
2023/01/03 01:34:01;;;;;;;29.25;18.52;;;5.30;99.90;;;;;;5055306;28;20025;-70
2023/01/03 01:36:31;;;;;;;29.02;17.05;;;5.30;99.90;;;;;;5055241;28;20052;-69
2023/01/03 01:39:05;;;;;;;36.03;19.75;;;5.30;99.90;;;;;;5054518;28;20025;-70
2023/01/03 01:44:47;;;;;;;25.58;16.85;;;5.20;99.90;;;;;;5053872;28;20035;-69
2023/01/03 01:47:53;;;;;;;21.00;15.13;;;5.10;99.90;;;;;;5055041;28;20104;-69
2023/01/03 01:50:33;;;;;;;27.02;17.08;;;5.10;99.90;;;;;;5055242;28;20469;-70
2023/01/03 01:53:03;;;;;;;35.10;16.90;;;4.90;99.90;;;;;;5054141;28;20021;-70
2023/01/03 01:55:37;;;;;;;26.98;18.02;;;4.90;99.90;;;;;;5055123;28;20492;-70
2023/01/03 01:58:04;;;;;;;22.67;17.00;;;4.80;99.90;;;;;;5054380;28;20032;-69
2023/01/03 02:00:29;;;;;;;31.13;18.00;;;4.80;99.90;;;;;;5054399;28;20025;-70
2023/01/03 02:02:55;;;;;;;22.02;16.45;;;4.70;99.90;;;;;;5054989;28;20028;-70
2023/01/03 02:05:21;;;;;;;29.27;18.00;;;4.70;99.90;;;;;;5054659;28;20021;-69
2023/01/03 02:07:49;;;;;;;24.00;17.00;;;4.60;99.90;;;;;;5054019;28;20029;-70
2023/01/03 02:10:16;;;;;;;26.60;17.63;;;4.60;99.90;;;;;;5054416;28;20021;-69
2023/01/03 02:13:05;;;;;;;23.33;15.48;;;4.60;99.90;;;;;;5053991;28;20021;-69
2023/01/03 02:15:49;;;;;;;30.33;15.98;;;4.50;99.90;;;;;;5054865;28;20017;-69
2023/01/03 02:18:49;;;;;;;45.65;17.73;;;4.40;99.90;;;;;;5054674;28;20124;-69
2023/01/03 02:21:39;;;;;;;205.73;23.77;;;4.40;99.90;;;;;;5054068;28;20024;-69
2023/01/03 02:24:39;;;;;;;30.20;17.60;;;4.30;99.90;;;;;;5054058;28;20255;-70
2023/01/03 02:27:25;;;;;;;28.88;15.90;;;4.40;99.90;;;;;;5053359;28;20033;-69
2023/01/03 02:30:24;;;;;;;56.22;15.93;;;4.40;99.90;;;;;;5043135;28;20021;-70
2023/01/03 02:32:51;;;;;;;26.17;15.05;;;4.30;99.90;;;;;;5053994;28;20024;-69
2023/01/03 02:35:37;;;;;;;47.38;15.98;;;4.20;99.90;;;;;;5053515;28;20377;-70
2023/01/03 02:38:29;;;;;;;44.65;15.00;;;4.30;99.90;;;;;;5053729;28;20552;-69
2023/01/03 02:41:17;;;;;;;34.70;16.73;;;4.20;99.90;;;;;;5026913;28;20088;-69
2023/01/03 02:43:52;;;;;;;47.83;15.75;;;4.20;99.90;;;;;;5054047;28;20029;-69
2023/01/03 02:46:32;;;;;;;48.58;16.05;;;4.10;99.90;;;;;;5046719;28;20040;-70
2023/01/03 02:49:17;;;;;;;34.80;15.35;;;4.20;99.90;;;;;;5053563;28;20084;-69
2023/01/03 02:51:52;;;;;;;117.00;18.90;;;4.20;99.90;;;;;;5053403;28;20017;-70
2023/01/03 02:54:40;;;;;;;28.23;15.43;;;4.20;99.90;;;;;;5053822;28;20029;-69
2023/01/03 02:57:17;;;;;;;32.17;15.02;;;4.10;99.90;;;;;;5047678;28;20045;-69
2023/01/03 02:59:51;;;;;;;39.45;15.27;;;4.10;99.90;;;;;;5053662;28;20108;-70
2023/01/03 03:02:20;;;;;;;27.85;14.73;;;4.10;99.90;;;;;;5052903;28;20361;-70
2023/01/03 03:04:50;;;;;;;17.88;14.60;;;4.00;99.90;;;;;;5039659;28;20025;-70
2023/01/03 03:07:21;;;;;;;19.97;15.57;;;4.00;99.90;;;;;;5053872;28;20037;-69
2023/01/03 03:15:22;;;;;;;20.70;15.02;;;3.90;99.90;;;;;;5053636;28;20032;-71
2023/01/03 03:17:50;;;;;;;26.05;16.30;;;3.80;99.90;;;;;;5052049;28;20045;-69
2023/01/03 03:26:06;;;;;;;22.15;15.82;;;3.80;99.90;;;;;;5053290;28;20134;-69
2023/01/03 03:28:37;;;;;;;26.05;15.80;;;3.80;99.90;;;;;;5052759;28;20057;-70
2023/01/03 03:31:13;;;;;;;22.35;15.90;;;3.80;99.90;;;;;;5052140;28;20025;-70
2023/01/03 03:33:48;;;;;;;25.27;15.00;;;3.70;99.90;;;;;;5053120;28;20040;-68
2023/01/03 03:36:25;;;;;;;18.98;13.80;;;3.70;99.90;;;;;;5052597;28;20116;-69
2023/01/03 03:38:51;;;;;;;68.60;15.63;;;3.70;99.90;;;;;;5052202;28;20036;-69
2023/01/03 03:47:17;;;;;;;17.45;13.52;;;3.70;99.90;;;;;;5052301;28;20116;-70
2023/01/03 03:49:48;;;;;;;18.83;12.90;;;3.70;99.90;;;;;;5052918;28;20381;-70
2023/01/03 03:52:18;;;;;;;22.70;13.65;;;3.70;99.90;;;;;;5052101;28;20096;-69
2023/01/03 03:54:49;;;;;;;24.40;13.90;;;3.60;99.90;;;;;;5043324;28;20037;-69
2023/01/03 03:57:59;;;;;;;19.67;14.10;;;3.60;99.90;;;;;;5048785;28;20051;-70
2023/01/03 04:00:30;;;;;;;19.27;14.00;;;3.60;99.90;;;;;;5041648;28;20161;-69
2023/01/03 04:02:59;;;;;;;23.50;14.93;;;3.50;99.90;;;;;;5052359;28;20036;-69
2023/01/03 04:05:30;;;;;;;21.38;15.82;;;3.60;99.90;;;;;;5052242;28;20039;-69
2023/01/03 04:07:56;;;;;;;21.35;14.68;;;3.60;99.90;;;;;;5052914;28;20040;-70
2023/01/03 04:10:22;;;;;;;25.90;16.50;;;3.50;99.90;;;;;;5053154;28;20555;-69
2023/01/03 04:12:49;;;;;;;27.95;16.38;;;3.60;99.90;;;;;;5051953;28;20103;-69
2023/01/03 04:15:16;;;;;;;23.02;15.95;;;3.50;99.90;;;;;;5052727;28;20503;-69
2023/01/03 04:17:42;;;;;;;20.48;15.60;;;3.60;99.90;;;;;;5052475;28;20033;-70
2023/01/03 04:20:09;;;;;;;23.40;15.30;;;3.50;99.90;;;;;;5050873;28;20408;-70
2023/01/03 04:22:34;;;;;;;25.15;16.27;;;3.50;99.90;;;;;;5052308;28;20060;-70
2023/01/03 04:25:00;;;;;;;26.95;17.65;;;3.50;99.90;;;;;;5052435;28;20342;-69
2023/01/03 04:27:26;;;;;;;23.05;17.17;;;3.50;99.90;;;;;;5051776;28;20122;-69
2023/01/03 04:29:51;;;;;;;29.45;16.50;;;3.50;99.90;;;;;;5052263;28;20158;-69
2023/01/03 04:32:17;;;;;;;26.48;16.42;;;3.50;99.90;;;;;;5051734;28;20071;-69
2023/01/03 04:34:42;;;;;;;25.67;17.25;;;3.50;99.90;;;;;;5051123;28;20025;-72
2023/01/03 04:37:08;;;;;;;31.02;16.05;;;3.50;99.90;;;;;;5051760;28;20067;-69
2023/01/03 04:39:34;;;;;;;25.52;16.80;;;3.50;99.90;;;;;;5051770;28;20032;-69
2023/01/03 04:42:00;;;;;;;28.50;17.73;;;3.50;99.90;;;;;;5050332;28;20028;-69
2023/01/03 04:44:26;;;;;;;29.60;17.77;;;3.40;99.90;;;;;;5051715;28;20044;-71
2023/01/03 04:46:52;;;;;;;28.10;17.33;;;3.50;99.90;;;;;;5051793;28;20021;-69
2023/01/03 04:49:19;;;;;;;30.35;18.23;;;3.50;99.90;;;;;;5051337;28;20020;-69
2023/01/03 04:51:44;;;;;;;29.75;18.05;;;3.50;99.90;;;;;;5050302;28;20033;-70
2023/01/03 04:54:10;;;;;;;27.77;17.13;;;3.50;99.90;;;;;;5045279;28;20022;-69
2023/01/03 04:56:37;;;;;;;29.67;17.73;;;3.50;99.90;;;;;;5042763;28;20080;-70
2023/01/03 04:59:03;;;;;;;32.75;17.77;;;3.50;99.90;;;;;;5051331;28;20021;-69
2023/01/03 05:01:29;;;;;;;31.17;18.30;;;3.40;99.90;;;;;;5051071;28;20055;-69
2023/01/03 05:03:59;;;;;;;27.30;17.67;;;3.40;99.90;;;;;;5051567;28;20458;-69
2023/01/03 05:06:26;;;;;;;27.40;16.40;;;3.40;99.90;;;;;;5051899;28;20086;-70
2023/01/03 05:08:52;;;;;;;27.33;17.00;;;3.40;99.90;;;;;;5050918;28;20040;-68
2023/01/03 05:11:17;;;;;;;27.98;17.50;;;3.40;99.90;;;;;;5051791;28;20381;-70
2023/01/03 05:13:43;;;;;;;28.08;18.33;;;3.50;99.90;;;;;;5051716;28;20056;-70
2023/01/03 05:16:11;;;;;;;29.88;17.88;;;3.40;99.90;;;;;;5046261;28;20017;-68
2023/01/03 05:18:37;;;;;;;31.00;17.58;;;3.50;99.90;;;;;;5032464;28;20029;-69
2023/01/03 05:26:47;;;;;;;22.60;15.98;;;3.40;99.90;;;;;;5033392;28;20048;-69
2023/01/03 05:29:15;;;;;;;24.70;16.00;;;3.40;99.90;;;;;;5031740;28;20397;-70
2023/01/03 05:31:41;;;;;;;27.73;17.10;;;2.60;99.90;;;;;;5030138;28;20025;-69
2023/01/03 05:34:06;;;;;;;21.83;16.77;;;3.40;99.90;;;;;;5029920;28;20018;-70
2023/01/03 05:36:32;;;;;;;32.80;17.58;;;3.40;99.90;;;;;;5030638;28;20050;-70
2023/01/03 05:38:57;;;;;;;33.35;18.27;;;3.40;99.90;;;;;;5030918;28;20100;-69
2023/01/03 05:44:07;;;;;;;27.10;17.50;;;3.40;99.90;;;;;;5039556;28;20032;-69
2023/01/03 05:46:33;;;;;;;35.03;17.92;;;3.40;99.90;;;;;;5034922;28;20017;-70
2023/01/03 05:48:58;;;;;;;30.65;19.02;;;3.40;99.90;;;;;;5035585;28;20025;-69
2023/01/03 05:51:24;;;;;;;29.05;18.58;;;3.50;99.90;;;;;;5035706;28;20025;-69
2023/01/03 05:53:50;;;;;;;27.38;17.98;;;3.50;99.90;;;;;;5035686;28;20022;-69
2023/01/03 05:56:16;;;;;;;38.95;19.98;;;3.60;99.90;;;;;;5044969;28;20029;-70
2023/01/03 05:58:44;;;;;;;33.33;20.73;;;3.70;99.90;;;;;;5059018;28;20029;-70
2023/01/03 06:01:12;;;;;;;34.53;21.02;;;3.70;99.90;;;;;;5056954;28;20017;-70
2023/01/03 06:03:38;;;;;;;27.70;19.65;;;3.80;99.90;;;;;;5054881;28;20033;-70
2023/01/03 06:06:05;;;;;;;27.40;18.48;;;3.90;99.90;;;;;;5054041;28;20385;-70
2023/01/03 06:08:31;;;;;;;31.25;18.15;;;3.90;99.90;;;;;;5055089;28;20029;-70
2023/01/03 06:10:57;;;;;;;29.75;17.20;;;4.00;99.90;;;;;;5054660;28;20028;-69
2023/01/03 06:13:23;;;;;;;32.88;18.95;;;4.00;99.90;;;;;;5053965;28;20017;-69
2023/01/03 06:17:53;;;;;;;32.78;17.58;;;4.10;99.90;;;;;;5053088;28;20480;-70
2023/01/03 06:18:35;;;;;;;24.30;16.70;;;4.10;99.90;;;;;;5039879;28;20033;-71
2023/01/03 06:21:04;;;;;;;24.85;17.15;;;4.10;99.90;;;;;;5047862;28;20033;-70
2023/01/03 06:23:30;;;;;;;25.55;17.48;;;4.20;99.90;;;;;;5034867;28;20021;-70
2023/01/03 06:25:56;;;;;;;28.92;17.02;;;4.10;99.90;;;;;;5033419;28;20552;-71
2023/01/03 06:28:21;;;;;;;25.17;16.85;;;4.10;99.90;;;;;;5033665;28;20048;-70
2023/01/03 06:30:47;;;;;;;36.85;16.33;;;4.20;99.90;;;;;;5034579;28;20025;-71
2023/01/03 06:33:12;;;;;;;33.85;16.00;;;4.20;99.90;;;;;;5032593;28;20018;-68
2023/01/03 06:35:38;;;;;;;22.85;15.13;;;4.20;99.90;;;;;;5035382;28;20068;-71
2023/01/03 06:38:04;;;;;;;24.15;14.32;;;4.30;99.90;;;;;;5033090;28;20073;-69
2023/01/03 06:40:29;;;;;;;26.38;15.40;;;4.30;99.90;;;;;;5033002;28;20359;-71
2023/01/03 06:42:55;;;;;;;25.48;15.32;;;4.40;99.90;;;;;;5033547;28;20036;-72
2023/01/03 06:53:40;;;;;;;21.10;14.23;;;4.40;99.90;;;;;;5033932;28;20083;-73
2023/01/03 06:56:07;;;;;;;25.55;14.73;;;4.50;99.90;;;;;;5040482;28;20036;-73
2023/01/03 06:58:32;;;;;;;22.35;15.15;;;4.60;99.90;;;;;;5054519;28;20037;-73
2023/01/03 07:01:03;;;;;;;24.33;15.35;;;4.60;99.90;;;;;;5053165;28;20794;-72
2023/01/03 07:03:32;;;;;;;24.40;15.63;;;4.60;99.90;;;;;;5054352;28;20442;-72
2023/01/03 07:05:57;;;;;;;20.92;14.52;;;4.60;99.90;;;;;;5053153;28;20051;-72
2023/01/03 07:08:23;;;;;;;24.60;15.27;;;4.70;99.90;;;;;;5053077;28;20100;-72
2023/01/03 07:10:49;;;;;;;27.85;15.18;;;4.70;99.90;;;;;;5049012;28;20037;-72
2023/01/03 07:15:58;;;;;;;21.48;15.20;;;4.80;99.90;;;;;;5045589;28;20035;-71
2023/01/03 07:18:25;;;;;;;21.45;14.10;;;4.80;99.90;;;;;;5048912;28;20032;-72
2023/01/03 07:20:51;;;;;;;28.33;14.82;;;4.90;99.90;;;;;;5046597;28;20059;-72
2023/01/03 07:23:16;;;;;;;20.70;15.20;;;4.90;99.90;;;;;;5052111;28;20103;-72
2023/01/03 07:25:43;;;;;;;20.77;14.40;;;4.90;99.90;;;;;;5040776;28;20114;-72
2023/01/03 07:28:10;;;;;;;22.58;14.27;;;5.00;99.90;;;;;;5032418;28;20172;-72
2023/01/03 07:30:37;;;;;;;24.77;14.85;;;4.90;99.90;;;;;;5032291;28;20033;-72
2023/01/03 07:33:03;;;;;;;24.92;14.80;;;5.00;99.90;;;;;;5034662;28;20022;-71
2023/01/03 07:35:31;;;;;;;24.58;15.15;;;4.90;99.90;;;;;;5039675;28;20036;-71
2023/01/03 07:37:57;;;;;;;21.15;13.02;;;5.00;99.90;;;;;;5032623;28;20033;-71
2023/01/03 07:40:22;;;;;;;26.90;13.70;;;5.00;99.90;;;;;;5033353;28;20024;-72
2023/01/03 07:45:32;;;;;;;17.17;12.43;;;4.90;99.90;;;;;;5033738;28;20389;-72
2023/01/03 07:47:58;;;;;;;19.73;13.85;;;4.90;99.90;;;;;;5039224;28;20104;-69
2023/01/03 07:50:24;;;;;;;21.30;12.85;;;5.00;99.90;;;;;;5045251;28;20025;-71
2023/01/03 07:52:49;;;;;;;19.35;14.10;;;5.00;99.90;;;;;;5046208;28;20112;-70
2023/01/03 07:55:15;;;;;;;19.35;12.40;;;5.00;99.90;;;;;;5039427;28;20025;-70
2023/01/03 07:57:40;;;;;;;18.92;13.13;;;5.10;99.90;;;;;;5036443;28;20033;-72
2023/01/03 08:00:07;;;;;;;17.85;13.25;;;5.10;99.90;;;;;;5044460;28;20028;-71
2023/01/03 08:02:34;;;;;;;18.75;13.55;;;5.20;99.90;;;;;;5047013;28;20155;-71
2023/01/03 08:04:59;;;;;;;15.40;12.38;;;5.20;99.90;;;;;;5048341;28;20082;-70
2023/01/03 08:07:25;;;;;;;16.35;12.25;;;5.30;99.90;;;;;;5037993;28;20037;-73
2023/01/03 08:15:19;;;;;;;20.33;12.93;;;5.40;99.90;;;;;;5032858;28;20103;-72
2023/01/03 08:17:44;;;;;;;19.60;13.30;;;5.40;99.90;;;;;;5032608;28;20057;-72
2023/01/03 08:20:10;;;;;;;17.65;12.65;;;5.50;99.90;;;;;;5035805;28;20032;-69
2023/01/03 08:22:36;;;;;;;19.35;12.80;;;5.50;99.90;;;;;;5037280;28;20030;-72
2023/01/03 08:25:01;;;;;;;20.80;12.95;;;5.50;99.90;;;;;;5032509;28;20021;-71
2023/01/03 08:27:27;;;;;;;18.50;12.55;;;5.60;99.90;;;;;;5031754;28;20088;-71
2023/01/03 08:29:52;;;;;;;20.77;12.88;;;5.60;99.90;;;;;;5032148;28;20033;-70
2023/01/03 08:32:20;;;;;;;19.15;13.30;;;5.60;99.90;;;;;;5031606;28;20029;-72
2023/01/03 08:34:47;;;;;;;20.88;13.20;;;5.60;99.90;;;;;;5043255;28;20071;-72
2023/01/03 08:37:14;;;;;;;22.13;14.07;;;5.70;99.90;;;;;;5031214;28;20079;-71
2023/01/03 08:40:01;;;;;;;19.13;13.88;;;5.80;99.90;;;;;;5036709;28;20041;-71
2023/01/03 08:42:27;;;;;;;18.70;13.68;;;5.90;99.90;;;;;;5031679;28;20025;-71
2023/01/03 08:44:58;;;;;;;23.98;13.90;;;6.00;99.90;;;;;;5032361;28;20029;-71
2023/01/03 08:47:24;;;;;;;18.08;13.23;;;6.00;99.90;;;;;;5031357;28;20049;-73
2023/01/03 08:49:50;;;;;;;24.85;15.60;;;6.10;99.90;;;;;;5031632;28;20056;-71
2023/01/03 08:52:16;;;;;;;26.35;16.42;;;6.20;99.90;;;;;;5042356;28;20028;-71
2023/01/03 08:54:42;;;;;;;24.48;16.38;;;6.30;99.90;;;;;;5037482;28;20543;-72
2023/01/03 08:57:08;;;;;;;30.90;17.50;;;6.40;99.90;;;;;;5047074;28;20041;-72
2023/01/03 08:59:34;;;;;;;29.15;18.45;;;6.40;99.90;;;;;;5055768;28;20025;-70
2023/01/03 09:02:00;;;;;;;31.35;19.30;;;6.50;99.90;;;;;;5049856;28;20082;-73
2023/01/03 09:04:26;;;;;;;40.60;19.65;;;6.50;99.90;;;;;;5048632;28;20021;-72
2023/01/03 09:06:52;;;;;;;32.65;21.00;;;6.50;99.90;;;;;;5051639;28;20059;-73
2023/01/03 09:09:17;;;;;;;40.17;19.70;;;6.60;99.90;;;;;;5029605;28;20163;-71
2023/01/03 09:11:43;;;;;;;43.72;20.95;;;6.60;99.90;;;;;;5045659;28;20033;-72
2023/01/03 09:14:08;;;;;;;36.22;19.83;;;6.70;99.90;;;;;;5043417;28;20034;-73
2023/01/03 09:16:34;;;;;;;37.22;20.38;;;6.70;99.90;;;;;;5030994;28;20508;-73
2023/01/03 09:19:01;;;;;;;39.17;21.42;;;6.70;99.90;;;;;;5032443;28;20826;-73
2023/01/03 09:21:27;;;;;;;35.53;21.83;;;6.80;99.90;;;;;;5032880;28;20056;-73
2023/01/03 09:23:53;;;;;;;39.83;21.00;;;6.80;99.90;;;;;;5033501;28;20013;-72
2023/01/03 09:26:18;;;;;;;40.58;21.27;;;6.80;99.90;;;;;;5033894;28;20017;-71
2023/01/03 09:28:44;;;;;;;38.05;22.52;;;6.90;99.90;;;;;;5032781;28;20488;-73
2023/01/03 09:31:10;;;;;;;40.53;23.55;;;6.90;99.90;;;;;;5034033;28;20032;-72
2023/01/03 09:33:36;;;;;;;47.90;22.75;;;6.90;99.90;;;;;;5036899;28;20026;-72
2023/01/03 09:36:02;;;;;;;43.50;22.67;;;7.00;99.90;;;;;;5034926;28;20018;-72
2023/01/03 09:38:27;;;;;;;42.08;23.85;;;7.00;99.90;;;;;;5035456;28;20033;-71
2023/01/03 09:41:00;;;;;;;35.75;23.25;;;7.00;99.90;;;;;;5039287;28;20071;-72
2023/01/03 09:43:35;;;;;;;45.47;23.25;;;7.10;99.90;;;;;;5046095;28;20033;-72
2023/01/03 09:46:01;;;;;;;47.42;24.73;;;7.10;99.90;;;;;;5035970;28;20041;-72
2023/01/03 09:48:36;;;;;;;46.15;24.48;;;7.20;99.90;;;;;;5044434;28;20420;-72
2023/01/03 09:51:02;;;;;;;51.22;24.95;;;7.20;99.90;;;;;;5039241;28;20061;-71
2023/01/03 10:05:26;;;;;;;;;;;7.40;99.90;;;;;;5052260;28;20431;-71
2023/01/03 10:08:09;;;;;;;61.30;28.25;;;7.40;99.90;;;;;;5049589;28;19920;-72
2023/01/03 10:10:51;;;;;;;57.47;28.40;;;7.40;99.90;;;;;;5050983;28;20017;-71
2023/01/03 10:13:32;;;;;;;49.60;26.67;;;7.40;99.90;;;;;;5049653;28;20021;-71
2023/01/03 10:16:25;;;;;;;47.03;27.67;;;7.50;99.90;;;;;;5051067;28;20024;-71
2023/01/03 10:19:15;;;;;;;46.78;26.48;;;7.50;99.90;;;;;;5049143;28;20477;-72
2023/01/03 10:21:53;;;;;;;46.75;25.10;;;7.50;99.90;;;;;;5051006;28;20036;-72
2023/01/03 10:24:29;;;;;;;46.20;27.10;;;7.50;99.90;;;;;;5052303;28;20025;-71
2023/01/03 10:27:20;;;;;;;53.22;25.40;;;7.60;99.90;;;;;;5048200;28;20023;-70
2023/01/03 10:29:48;;;;;;;54.15;25.83;;;7.70;99.90;;;;;;5048713;28;20394;-71
2023/01/03 10:32:34;;;;;;;46.40;26.20;;;7.70;99.90;;;;;;5051819;28;20049;-72
2023/01/03 10:35:18;;;;;;;42.03;25.17;;;7.80;99.90;;;;;;5051095;28;20431;-71
2023/01/03 10:37:45;;;;;;;54.70;24.77;;;7.80;99.90;;;;;;5050061;28;20074;-72
2023/01/03 10:40:12;;;;;;;41.53;24.80;;;7.80;99.90;;;;;;5051548;28;20032;-74
2023/01/03 10:42:39;;;;;;;40.65;23.95;;;7.90;99.90;;;;;;5048843;28;20056;-72
2023/01/03 10:45:19;;;;;;;47.08;25.67;;;8.00;99.90;;;;;;5052641;28;20067;-71
2023/01/03 10:47:58;;;;;;;47.37;23.63;;;8.00;99.90;;;;;;5053187;28;20385;-72
2023/01/03 10:50:24;;;;;;;40.05;22.77;;;8.10;99.90;;;;;;5050636;28;20070;-71
2023/01/03 10:53:06;;;;;;;39.22;23.75;;;8.20;99.90;;;;;;5043718;28;20696;-72
2023/01/03 10:55:42;;;;;;;42.15;23.10;;;8.20;99.90;;;;;;5036377;28;20034;-72
2023/01/03 10:58:34;;;;;;;35.45;21.58;;;8.20;99.90;;;;;;5033698;28;20056;-71
2023/01/03 11:01:29;;;;;;;35.53;21.13;;;8.20;99.90;;;;;;5037337;28;20029;-72
2023/01/03 11:04:14;;;;;;;39.78;22.70;;;8.20;99.90;;;;;;5039779;28;20490;-73
2023/01/03 11:07:16;;;;;;;35.13;19.30;;;8.20;99.90;;;;;;5051839;28;20021;-73
2023/01/03 11:09:53;;;;;;;32.40;20.48;;;8.30;99.90;;;;;;5047588;28;20052;-73
2023/01/03 11:12:27;;;;;;;37.42;20.45;;;8.20;99.90;;;;;;5050763;28;20017;-72
2023/01/03 11:14:55;;;;;;;32.63;19.88;;;8.20;99.90;;;;;;5051073;28;20124;-72
2023/01/03 11:17:22;;;;;;;36.88;19.50;;;8.20;99.90;;;;;;5050153;28;20025;-74
2023/01/03 11:19:49;;;;;;;36.50;20.42;;;8.30;99.90;;;;;;5052781;28;20021;-72
2023/01/03 11:22:36;;;;;;;36.40;22.20;;;8.30;99.90;;;;;;5036881;28;20040;-72
2023/01/03 11:25:19;;;;;;;33.88;21.02;;;8.30;99.90;;;;;;5047407;28;20032;-73
2023/01/03 11:28:09;;;;;;;34.67;20.30;;;8.30;99.90;;;;;;5048228;28;20037;-72
2023/01/03 11:30:45;;;;;;;41.13;21.58;;;8.40;99.90;;;;;;5051164;28;20055;-72
2023/01/03 11:33:48;;;;;;;37.33;19.85;;;8.50;99.90;;;;;;5041639;28;20404;-71
2023/01/03 11:36:27;;;;;;;32.33;19.63;;;8.50;99.90;;;;;;5046922;28;20466;-72
2023/01/03 11:39:21;;;;;;;34.05;20.52;;;8.50;99.90;;;;;;5051131;28;20032;-72
2023/01/03 11:42:14;;;;;;;29.00;18.33;;;8.50;99.90;;;;;;5044733;28;20516;-70
2023/01/03 11:44:59;;;;;;;34.17;19.27;;;8.50;99.90;;;;;;5049618;28;20044;-71
2023/01/03 11:47:48;;;;;;;33.22;19.02;;;8.50;99.90;;;;;;5045416;28;20056;-73
2023/01/03 11:50:51;;;;;;;32.13;18.67;;;8.50;99.90;;;;;;5049074;28;20337;-73
2023/01/03 11:53:35;;;;;;;28.85;18.42;;;8.50;99.90;;;;;;5049078;28;20057;-72
2023/01/03 11:56:21;;;;;;;33.47;18.15;;;8.60;99.90;;;;;;5045189;28;20354;-72
2023/01/03 11:58:56;;;;;;;28.55;17.88;;;8.60;99.90;;;;;;5025083;28;20037;-72
2023/01/03 12:01:47;;;;;;;28.20;17.42;;;8.70;99.90;;;;;;5032422;28;20035;-72
2023/01/03 12:04:32;;;;;;;28.15;16.77;;;8.80;99.90;;;;;;5031062;28;20024;-73
2023/01/03 12:07:10;;;;;;;24.48;15.57;;;8.70;99.90;;;;;;5031991;28;20040;-74
2023/01/03 12:09:48;;;;;;;23.60;15.43;;;8.80;99.90;;;;;;5032932;28;20073;-72
2023/01/03 12:12:46;;;;;;;24.70;15.32;;;8.70;99.90;;;;;;5032397;28;20025;-73
2023/01/03 12:15:27;;;;;;;21.95;15.95;;;8.80;99.90;;;;;;5032858;28;20033;-72
2023/01/03 12:18:09;;;;;;;22.38;14.15;;;8.80;99.90;;;;;;5031777;28;20497;-73
2023/01/03 12:20:36;;;;;;;25.02;13.80;;;8.90;99.90;;;;;;5032654;28;20036;-73
2023/01/03 12:23:20;;;;;;;16.27;12.45;;;9.00;99.90;;;;;;5045459;28;20032;-72
2023/01/03 12:25:51;;;;;;;19.92;12.38;;;9.10;99.90;;;;;;5038794;28;20031;-72
2023/01/03 12:28:29;;;;;;;16.77;11.35;;;9.10;99.90;;;;;;5040829;28;20053;-73
2023/01/03 12:31:02;;;;;;;19.70;12.43;;;9.10;99.90;;;;;;5037222;28;20032;-71
2023/01/03 12:33:41;;;;;;;17.42;11.45;;;9.20;99.90;;;;;;5040459;28;20551;-72
2023/01/03 12:36:42;;;;;;;17.95;10.77;;;9.20;99.90;;;;;;5043861;28;20025;-72
2023/01/03 12:39:30;;;;;;;14.63;9.80;;;9.20;99.90;;;;;;4998839;28;20076;-72
2023/01/03 12:42:00;;;;;;;11.52;9.00;;;9.30;99.90;;;;;;5048388;28;20043;-73
2023/01/03 12:44:43;;;;;;;14.48;8.95;;;9.30;99.90;;;;;;5048896;28;20104;-72
2023/01/03 12:47:28;;;;;;;18.05;9.75;;;9.30;99.90;;;;;;5046872;28;20416;-72
2023/01/03 12:50:24;;;;;;;15.48;9.45;;;9.30;99.90;;;;;;5046891;28;20066;-72
2023/01/03 12:53:10;;;;;;;12.43;7.40;;;9.20;99.90;;;;;;5047751;28;20021;-71
2023/01/03 12:55:50;;;;;;;11.85;7.90;;;9.20;99.90;;;;;;5045760;28;20660;-71
2023/01/03 12:58:24;;;;;;;12.52;6.95;;;9.20;99.90;;;;;;5049956;28;20699;-71
2023/01/03 13:01:10;;;;;;;15.45;7.72;;;9.20;99.90;;;;;;5049658;28;20025;-72
2023/01/03 13:03:45;;;;;;;9.50;7.85;;;9.20;99.90;;;;;;5049155;28;20045;-74
2023/01/03 13:06:24;;;;;;;15.82;7.18;;;9.20;99.90;;;;;;5038689;28;20025;-73
2023/01/03 13:09:22;;;;;;;16.85;7.30;;;9.20;99.90;;;;;;5038660;28;20021;-73
2023/01/03 13:11:54;;;;;;;10.88;7.50;;;9.30;99.90;;;;;;5038826;28;20044;-72
2023/01/03 13:14:23;;;;;;;11.48;6.57;;;9.30;99.90;;;;;;5032535;28;20025;-72
2023/01/03 13:17:08;;;;;;;11.25;6.57;;;9.40;99.90;;;;;;5031940;28;20029;-73
2023/01/03 13:19:34;;;;;;;14.00;6.28;;;9.40;99.90;;;;;;5030816;28;20041;-73
2023/01/03 13:22:20;;;;;;;9.60;5.93;;;9.40;99.90;;;;;;5041780;28;20377;-73
2023/01/03 13:24:51;;;;;;;8.32;5.45;;;9.50;99.90;;;;;;5038424;28;20037;-73
2023/01/03 13:27:23;;;;;;;13.07;6.18;;;9.50;99.90;;;;;;5041391;28;20029;-73
2023/01/03 13:29:49;;;;;;;11.23;6.38;;;9.60;99.90;;;;;;5047594;28;20106;-73
2023/01/03 13:32:20;;;;;;;8.07;5.90;;;9.60;99.90;;;;;;5033862;28;20026;-72
2023/01/03 13:34:55;;;;;;;11.77;6.38;;;9.60;99.90;;;;;;5038126;28;20041;-73
2023/01/03 13:37:44;;;;;;;6.38;5.68;;;9.50;99.90;;;;;;5032902;28;20033;-73
2023/01/03 13:40:27;;;;;;;9.27;6.00;;;9.50;99.90;;;;;;5038618;28;20039;-72
2023/01/03 13:43:07;;;;;;;11.00;6.50;;;9.50;99.90;;;;;;5032085;28;20113;-72
2023/01/03 13:45:33;;;;;;;10.70;5.68;;;9.50;99.90;;;;;;5049501;28;20072;-73
2023/01/03 13:48:13;;;;;;;10.70;5.80;;;9.50;99.90;;;;;;5031138;28;20061;-73
2023/01/03 13:50:38;;;;;;;7.45;5.68;;;9.50;99.90;;;;;;5032446;28;20389;-72
2023/01/03 13:53:08;;;;;;;12.60;6.75;;;9.40;99.90;;;;;;5036132;28;20104;-73
2023/01/03 13:55:39;;;;;;;10.97;7.13;;;9.30;99.90;;;;;;5035864;28;20036;-73
2023/01/03 13:58:22;;;;;;;;;;;9.30;99.90;;;;;;5036868;28;20296;-73
2023/01/03 14:00:52;;;;;;;9.85;5.50;;;9.30;99.90;;;;;;5050206;28;19905;-73
2023/01/03 14:04:07;;;;;;;14.27;5.87;;;9.30;99.90;;;;;;5038587;28;20029;-74
2023/01/03 14:06:52;;;;;;;8.63;5.88;;;9.20;99.90;;;;;;5053183;28;20271;-73